sensor_id;sensor_type;location;lat;lon;timestamp;P1;durP1;ratioP1;P2;durP2;ratioP2
78197;SDS011;67472;51.554;7.812;2023-05-21T00:01:19;10.02;;;7.97;;
78197;SDS011;67472;51.554;7.812;2023-05-21T00:04:05;11.93;;;8.68;;
78197;SDS011;67472;51.554;7.812;2023-05-21T00:06:51;12.50;;;9.43;;
78197;SDS011;67472;51.554;7.812;2023-05-21T00:09:37;11.23;;;9.10;;
78197;SDS011;67472;51.554;7.812;2023-05-21T00:12:25;13.90;;;10.98;;
78197;SDS011;67472;51.554;7.812;2023-05-21T00:15:11;12.35;;;9.23;;
78197;SDS011;67472;51.554;7.812;2023-05-21T00:17:58;10.57;;;9.40;;
78197;SDS011;67472;51.554;7.812;2023-05-21T00:20:45;17.40;;;11.55;;
78197;SDS011;67472;51.554;7.812;2023-05-21T00:23:30;12.48;;;9.70;;
78197;SDS011;67472;51.554;7.812;2023-05-21T00:26:17;12.23;;;9.07;;
78197;SDS011;67472;51.554;7.812;2023-05-21T00:29:06;10.13;;;8.45;;
78197;SDS011;67472;51.554;7.812;2023-05-21T00:31:53;16.45;;;10.50;;
78197;SDS011;67472;51.554;7.812;2023-05-21T00:34:40;16.13;;;10.27;;
78197;SDS011;67472;51.554;7.812;2023-05-21T00:37:26;13.40;;;9.93;;
78197;SDS011;67472;51.554;7.812;2023-05-21T00:40:13;13.50;;;10.05;;
78197;SDS011;67472;51.554;7.812;2023-05-21T00:43:00;11.32;;;9.77;;
78197;SDS011;67472;51.554;7.812;2023-05-21T00:45:48;11.85;;;9.90;;
78197;SDS011;67472;51.554;7.812;2023-05-21T00:48:37;13.15;;;10.57;;
78197;SDS011;67472;51.554;7.812;2023-05-21T00:51:24;17.75;;;11.70;;
78197;SDS011;67472;51.554;7.812;2023-05-21T00:54:13;14.70;;;10.75;;
78197;SDS011;67472;51.554;7.812;2023-05-21T00:57:00;16.45;;;11.32;;
78197;SDS011;67472;51.554;7.812;2023-05-21T00:59:49;16.50;;;11.60;;
78197;SDS011;67472;51.554;7.812;2023-05-21T01:02:38;15.00;;;11.50;;
78197;SDS011;67472;51.554;7.812;2023-05-21T01:05:25;11.82;;;10.05;;
78197;SDS011;67472;51.554;7.812;2023-05-21T01:08:12;15.15;;;10.57;;
78197;SDS011;67472;51.554;7.812;2023-05-21T01:10:58;14.90;;;11.20;;
78197;SDS011;67472;51.554;7.812;2023-05-21T01:13:44;12.95;;;10.20;;
78197;SDS011;67472;51.554;7.812;2023-05-21T01:16:31;12.20;;;9.85;;
78197;SDS011;67472;51.554;7.812;2023-05-21T01:19:22;12.32;;;9.85;;
78197;SDS011;67472;51.554;7.812;2023-05-21T01:22:09;15.45;;;10.35;;
78197;SDS011;67472;51.554;7.812;2023-05-21T01:24:59;15.30;;;11.18;;
78197;SDS011;67472;51.554;7.812;2023-05-21T01:27:47;13.25;;;10.30;;
78197;SDS011;67472;51.554;7.812;2023-05-21T01:30:33;13.35;;;10.63;;
78197;SDS011;67472;51.554;7.812;2023-05-21T01:33:22;14.15;;;10.13;;
78197;SDS011;67472;51.554;7.812;2023-05-21T01:36:14;13.73;;;10.25;;
78197;SDS011;67472;51.554;7.812;2023-05-21T01:39:08;16.30;;;10.35;;
78197;SDS011;67472;51.554;7.812;2023-05-21T01:42:02;12.13;;;9.68;;
78197;SDS011;67472;51.554;7.812;2023-05-21T01:44:50;13.63;;;10.25;;
78197;SDS011;67472;51.554;7.812;2023-05-21T01:47:43;14.23;;;11.23;;
78197;SDS011;67472;51.554;7.812;2023-05-21T01:50:32;12.38;;;10.90;;
78197;SDS011;67472;51.554;7.812;2023-05-21T01:53:19;13.60;;;11.02;;
78197;SDS011;67472;51.554;7.812;2023-05-21T01:56:06;16.17;;;11.32;;
78197;SDS011;67472;51.554;7.812;2023-05-21T01:58:54;17.15;;;12.15;;
78197;SDS011;67472;51.554;7.812;2023-05-21T02:01:43;17.65;;;11.65;;
78197;SDS011;67472;51.554;7.812;2023-05-21T02:04:29;16.58;;;12.23;;
78197;SDS011;67472;51.554;7.812;2023-05-21T02:07:16;17.40;;;12.48;;
78197;SDS011;67472;51.554;7.812;2023-05-21T02:10:03;16.45;;;12.65;;
78197;SDS011;67472;51.554;7.812;2023-05-21T02:12:50;15.25;;;12.25;;
78197;SDS011;67472;51.554;7.812;2023-05-21T02:15:38;15.65;;;11.23;;
78197;SDS011;67472;51.554;7.812;2023-05-21T02:18:25;14.98;;;10.80;;
78197;SDS011;67472;51.554;7.812;2023-05-21T02:21:12;15.13;;;11.85;;
78197;SDS011;67472;51.554;7.812;2023-05-21T02:23:59;15.60;;;11.75;;
78197;SDS011;67472;51.554;7.812;2023-05-21T02:26:45;14.13;;;11.38;;
78197;SDS011;67472;51.554;7.812;2023-05-21T02:29:32;12.98;;;9.60;;
78197;SDS011;67472;51.554;7.812;2023-05-21T02:32:19;15.38;;;11.68;;
78197;SDS011;67472;51.554;7.812;2023-05-21T02:35:08;13.45;;;10.70;;
78197;SDS011;67472;51.554;7.812;2023-05-21T02:37:55;13.07;;;10.00;;
78197;SDS011;67472;51.554;7.812;2023-05-21T02:40:42;14.73;;;10.70;;
78197;SDS011;67472;51.554;7.812;2023-05-21T02:43:28;12.85;;;10.18;;
78197;SDS011;67472;51.554;7.812;2023-05-21T02:46:14;13.15;;;10.02;;
78197;SDS011;67472;51.554;7.812;2023-05-21T02:49:02;12.60;;;10.50;;
78197;SDS011;67472;51.554;7.812;2023-05-21T02:51:48;13.48;;;10.23;;
78197;SDS011;67472;51.554;7.812;2023-05-21T02:54:34;15.60;;;11.57;;
78197;SDS011;67472;51.554;7.812;2023-05-21T02:57:21;17.85;;;12.40;;
78197;SDS011;67472;51.554;7.812;2023-05-21T03:00:09;15.88;;;12.38;;
78197;SDS011;67472;51.554;7.812;2023-05-21T03:02:58;17.65;;;12.05;;
78197;SDS011;67472;51.554;7.812;2023-05-21T03:05:46;16.42;;;11.48;;
78197;SDS011;67472;51.554;7.812;2023-05-21T03:08:33;16.20;;;12.13;;
78197;SDS011;67472;51.554;7.812;2023-05-21T03:11:20;15.70;;;10.57;;
78197;SDS011;67472;51.554;7.812;2023-05-21T03:14:06;12.88;;;11.27;;
78197;SDS011;67472;51.554;7.812;2023-05-21T03:16:53;14.80;;;11.50;;
78197;SDS011;67472;51.554;7.812;2023-05-21T03:19:39;14.20;;;11.65;;
78197;SDS011;67472;51.554;7.812;2023-05-21T03:22:28;16.08;;;11.20;;
78197;SDS011;67472;51.554;7.812;2023-05-21T03:25:15;14.40;;;10.80;;
78197;SDS011;67472;51.554;7.812;2023-05-21T03:28:01;16.58;;;12.13;;
78197;SDS011;67472;51.554;7.812;2023-05-21T03:31:01;13.27;;;10.60;;
78197;SDS011;67472;51.554;7.812;2023-05-21T03:34:04;16.83;;;12.48;;
78197;SDS011;67472;51.554;7.812;2023-05-21T03:36:52;16.58;;;12.23;;
78197;SDS011;67472;51.554;7.812;2023-05-21T03:39:41;16.50;;;11.10;;
78197;SDS011;67472;51.554;7.812;2023-05-21T03:42:27;16.02;;;12.18;;
78197;SDS011;67472;51.554;7.812;2023-05-21T03:45:14;13.50;;;11.52;;
78197;SDS011;67472;51.554;7.812;2023-05-21T03:48:00;13.95;;;11.20;;
78197;SDS011;67472;51.554;7.812;2023-05-21T03:50:47;15.05;;;11.65;;
78197;SDS011;67472;51.554;7.812;2023-05-21T03:53:34;15.75;;;11.48;;
78197;SDS011;67472;51.554;7.812;2023-05-21T03:56:22;15.23;;;11.50;;
78197;SDS011;67472;51.554;7.812;2023-05-21T03:59:08;15.10;;;11.65;;
78197;SDS011;67472;51.554;7.812;2023-05-21T04:01:54;14.13;;;11.63;;
78197;SDS011;67472;51.554;7.812;2023-05-21T04:04:40;14.52;;;11.93;;
78197;SDS011;67472;51.554;7.812;2023-05-21T04:07:28;16.35;;;12.60;;
78197;SDS011;67472;51.554;7.812;2023-05-21T04:10:15;18.48;;;12.23;;
78197;SDS011;67472;51.554;7.812;2023-05-21T04:13:03;16.92;;;12.32;;
78197;SDS011;67472;51.554;7.812;2023-05-21T04:15:49;15.75;;;12.45;;
78197;SDS011;67472;51.554;7.812;2023-05-21T04:18:35;18.50;;;13.15;;
78197;SDS011;67472;51.554;7.812;2023-05-21T04:21:22;18.70;;;12.35;;
78197;SDS011;67472;51.554;7.812;2023-05-21T04:24:09;14.93;;;10.65;;
78197;SDS011;67472;51.554;7.812;2023-05-21T04:27:05;17.08;;;12.32;;
78197;SDS011;67472;51.554;7.812;2023-05-21T04:29:55;17.92;;;12.82;;
78197;SDS011;67472;51.554;7.812;2023-05-21T04:32:42;16.65;;;12.70;;
78197;SDS011;67472;51.554;7.812;2023-05-21T04:35:29;16.65;;;13.02;;
78197;SDS011;67472;51.554;7.812;2023-05-21T04:38:16;16.27;;;12.73;;
78197;SDS011;67472;51.554;7.812;2023-05-21T04:41:03;18.15;;;13.45;;
78197;SDS011;67472;51.554;7.812;2023-05-21T04:43:50;16.25;;;12.25;;
78197;SDS011;67472;51.554;7.812;2023-05-21T04:46:40;18.15;;;13.13;;
78197;SDS011;67472;51.554;7.812;2023-05-21T04:49:29;16.52;;;12.38;;
78197;SDS011;67472;51.554;7.812;2023-05-21T04:52:18;16.40;;;13.07;;
78197;SDS011;67472;51.554;7.812;2023-05-21T04:55:05;16.20;;;12.93;;
78197;SDS011;67472;51.554;7.812;2023-05-21T04:57:52;18.42;;;13.45;;
78197;SDS011;67472;51.554;7.812;2023-05-21T05:00:38;17.60;;;13.60;;
78197;SDS011;67472;51.554;7.812;2023-05-21T05:03:27;17.20;;;13.38;;
78197;SDS011;67472;51.554;7.812;2023-05-21T05:06:14;23.70;;;13.48;;
78197;SDS011;67472;51.554;7.812;2023-05-21T05:09:01;18.60;;;14.15;;
78197;SDS011;67472;51.554;7.812;2023-05-21T05:11:48;17.25;;;13.50;;
78197;SDS011;67472;51.554;7.812;2023-05-21T05:14:34;17.00;;;13.25;;
78197;SDS011;67472;51.554;7.812;2023-05-21T05:17:21;18.92;;;14.23;;
78197;SDS011;67472;51.554;7.812;2023-05-21T05:20:09;19.10;;;15.00;;
78197;SDS011;67472;51.554;7.812;2023-05-21T05:22:56;22.85;;;14.13;;
78197;SDS011;67472;51.554;7.812;2023-05-21T05:25:43;17.75;;;14.40;;
78197;SDS011;67472;51.554;7.812;2023-05-21T05:28:29;18.33;;;13.90;;
78197;SDS011;67472;51.554;7.812;2023-05-21T05:31:17;20.33;;;14.68;;
78197;SDS011;67472;51.554;7.812;2023-05-21T05:34:03;17.55;;;14.13;;
78197;SDS011;67472;51.554;7.812;2023-05-21T05:36:51;23.95;;;15.35;;
78197;SDS011;67472;51.554;7.812;2023-05-21T05:39:38;21.70;;;15.95;;
78197;SDS011;67472;51.554;7.812;2023-05-21T05:42:24;19.02;;;15.32;;
78197;SDS011;67472;51.554;7.812;2023-05-21T05:45:11;20.58;;;14.98;;
78197;SDS011;67472;51.554;7.812;2023-05-21T05:47:58;20.52;;;14.52;;
78197;SDS011;67472;51.554;7.812;2023-05-21T05:50:44;22.23;;;15.07;;
78197;SDS011;67472;51.554;7.812;2023-05-21T05:53:34;17.35;;;14.00;;
78197;SDS011;67472;51.554;7.812;2023-05-21T05:56:20;16.85;;;13.48;;
78197;SDS011;67472;51.554;7.812;2023-05-21T05:59:06;15.07;;;11.90;;
78197;SDS011;67472;51.554;7.812;2023-05-21T06:01:55;16.80;;;13.73;;
78197;SDS011;67472;51.554;7.812;2023-05-21T06:04:42;19.80;;;13.20;;
78197;SDS011;67472;51.554;7.812;2023-05-21T06:07:29;19.13;;;13.05;;
78197;SDS011;67472;51.554;7.812;2023-05-21T06:10:16;14.40;;;12.25;;
78197;SDS011;67472;51.554;7.812;2023-05-21T06:13:05;15.25;;;12.90;;
78197;SDS011;67472;51.554;7.812;2023-05-21T06:15:51;17.10;;;12.65;;
78197;SDS011;67472;51.554;7.812;2023-05-21T06:18:38;14.80;;;13.05;;
78197;SDS011;67472;51.554;7.812;2023-05-21T06:21:25;14.07;;;12.57;;
78197;SDS011;67472;51.554;7.812;2023-05-21T06:24:11;17.13;;;13.20;;
78197;SDS011;67472;51.554;7.812;2023-05-21T06:26:59;15.75;;;12.70;;
78197;SDS011;67472;51.554;7.812;2023-05-21T06:29:45;16.33;;;12.65;;
78197;SDS011;67472;51.554;7.812;2023-05-21T06:32:32;18.67;;;13.43;;
78197;SDS011;67472;51.554;7.812;2023-05-21T06:35:18;18.52;;;12.93;;
78197;SDS011;67472;51.554;7.812;2023-05-21T06:38:06;13.13;;;11.68;;
78197;SDS011;67472;51.554;7.812;2023-05-21T06:40:55;17.27;;;12.57;;
78197;SDS011;67472;51.554;7.812;2023-05-21T06:43:57;17.77;;;11.90;;
78197;SDS011;67472;51.554;7.812;2023-05-21T06:47:02;19.73;;;12.63;;
78197;SDS011;67472;51.554;7.812;2023-05-21T06:49:49;16.27;;;12.55;;
78197;SDS011;67472;51.554;7.812;2023-05-21T06:52:35;19.83;;;12.95;;
78197;SDS011;67472;51.554;7.812;2023-05-21T06:55:21;15.82;;;13.27;;
78197;SDS011;67472;51.554;7.812;2023-05-21T06:58:30;18.42;;;13.23;;
78197;SDS011;67472;51.554;7.812;2023-05-21T07:01:18;16.10;;;12.68;;
78197;SDS011;67472;51.554;7.812;2023-05-21T07:04:06;15.80;;;12.57;;
78197;SDS011;67472;51.554;7.812;2023-05-21T07:06:52;20.92;;;13.57;;
78197;SDS011;67472;51.554;7.812;2023-05-21T07:09:39;16.17;;;13.30;;
78197;SDS011;67472;51.554;7.812;2023-05-21T07:12:27;14.65;;;12.82;;
78197;SDS011;67472;51.554;7.812;2023-05-21T07:15:13;14.48;;;12.15;;
78197;SDS011;67472;51.554;7.812;2023-05-21T07:18:01;15.27;;;11.77;;
78197;SDS011;67472;51.554;7.812;2023-05-21T07:20:48;15.02;;;11.98;;
78197;SDS011;67472;51.554;7.812;2023-05-21T07:23:34;14.32;;;11.88;;
78197;SDS011;67472;51.554;7.812;2023-05-21T07:26:21;16.67;;;12.82;;
78197;SDS011;67472;51.554;7.812;2023-05-21T07:29:08;16.65;;;12.93;;
78197;SDS011;67472;51.554;7.812;2023-05-21T07:31:54;13.85;;;12.38;;
78197;SDS011;67472;51.554;7.812;2023-05-21T07:34:42;14.50;;;12.00;;
78197;SDS011;67472;51.554;7.812;2023-05-21T07:37:29;16.48;;;12.98;;
78197;SDS011;67472;51.554;7.812;2023-05-21T07:40:15;15.25;;;12.30;;
78197;SDS011;67472;51.554;7.812;2023-05-21T07:43:02;21.67;;;13.98;;
78197;SDS011;67472;51.554;7.812;2023-05-21T07:45:50;16.95;;;13.23;;
78197;SDS011;67472;51.554;7.812;2023-05-21T07:48:36;18.20;;;12.85;;
78197;SDS011;67472;51.554;7.812;2023-05-21T07:51:24;16.52;;;12.68;;
78197;SDS011;67472;51.554;7.812;2023-05-21T07:54:11;16.45;;;12.98;;
78197;SDS011;67472;51.554;7.812;2023-05-21T07:56:58;14.82;;;12.55;;
78197;SDS011;67472;51.554;7.812;2023-05-21T08:00:09;14.93;;;12.45;;
78197;SDS011;67472;51.554;7.812;2023-05-21T08:03:04;15.93;;;12.52;;
78197;SDS011;67472;51.554;7.812;2023-05-21T08:05:51;16.27;;;11.65;;
78197;SDS011;67472;51.554;7.812;2023-05-21T08:08:39;16.65;;;11.93;;
78197;SDS011;67472;51.554;7.812;2023-05-21T08:11:26;14.40;;;12.40;;
78197;SDS011;67472;51.554;7.812;2023-05-21T08:14:12;20.20;;;12.95;;
78197;SDS011;67472;51.554;7.812;2023-05-21T08:16:59;14.07;;;12.43;;
78197;SDS011;67472;51.554;7.812;2023-05-21T08:19:46;15.48;;;12.80;;
78197;SDS011;67472;51.554;7.812;2023-05-21T08:22:32;17.45;;;12.85;;
78197;SDS011;67472;51.554;7.812;2023-05-21T08:25:20;17.15;;;13.18;;
78197;SDS011;67472;51.554;7.812;2023-05-21T08:28:07;16.63;;;12.20;;
78197;SDS011;67472;51.554;7.812;2023-05-21T08:30:53;16.65;;;12.98;;
78197;SDS011;67472;51.554;7.812;2023-05-21T08:33:48;19.20;;;11.68;;
78197;SDS011;67472;51.554;7.812;2023-05-21T08:36:36;14.73;;;12.38;;
78197;SDS011;67472;51.554;7.812;2023-05-21T08:39:29;18.52;;;12.05;;
78197;SDS011;67472;51.554;7.812;2023-05-21T08:42:18;14.05;;;11.98;;
78197;SDS011;67472;51.554;7.812;2023-05-21T08:45:12;18.38;;;12.25;;
78197;SDS011;67472;51.554;7.812;2023-05-21T08:48:01;14.45;;;12.10;;
78197;SDS011;67472;51.554;7.812;2023-05-21T08:50:51;15.52;;;12.43;;
78197;SDS011;67472;51.554;7.812;2023-05-21T08:53:47;18.60;;;12.77;;
78197;SDS011;67472;51.554;7.812;2023-05-21T08:56:36;14.23;;;12.52;;
78197;SDS011;67472;51.554;7.812;2023-05-21T08:59:30;18.83;;;13.77;;
78197;SDS011;67472;51.554;7.812;2023-05-21T09:02:18;18.70;;;13.48;;
78197;SDS011;67472;51.554;7.812;2023-05-21T09:05:05;16.63;;;13.60;;
78197;SDS011;67472;51.554;7.812;2023-05-21T09:07:54;16.48;;;13.25;;
78197;SDS011;67472;51.554;7.812;2023-05-21T09:10:54;17.65;;;13.98;;
78197;SDS011;67472;51.554;7.812;2023-05-21T09:13:46;16.50;;;12.90;;
78197;SDS011;67472;51.554;7.812;2023-05-21T09:16:42;18.13;;;14.48;;
78197;SDS011;67472;51.554;7.812;2023-05-21T09:19:32;17.90;;;13.57;;
78197;SDS011;67472;51.554;7.812;2023-05-21T09:22:22;17.77;;;15.05;;
78197;SDS011;67472;51.554;7.812;2023-05-21T09:25:09;18.60;;;14.68;;
78197;SDS011;67472;51.554;7.812;2023-05-21T09:27:56;20.73;;;13.32;;
78197;SDS011;67472;51.554;7.812;2023-05-21T09:30:44;22.98;;;14.80;;
78197;SDS011;67472;51.554;7.812;2023-05-21T09:33:31;16.65;;;14.25;;
78197;SDS011;67472;51.554;7.812;2023-05-21T09:36:19;19.48;;;13.85;;
78197;SDS011;67472;51.554;7.812;2023-05-21T09:39:06;17.38;;;14.00;;
78197;SDS011;67472;51.554;7.812;2023-05-21T09:41:55;16.30;;;13.25;;
78197;SDS011;67472;51.554;7.812;2023-05-21T09:44:41;17.65;;;13.88;;
78197;SDS011;67472;51.554;7.812;2023-05-21T09:47:28;15.13;;;13.32;;
78197;SDS011;67472;51.554;7.812;2023-05-21T09:50:17;19.40;;;14.45;;
78197;SDS011;67472;51.554;7.812;2023-05-21T09:53:10;16.38;;;13.98;;
78197;SDS011;67472;51.554;7.812;2023-05-21T09:55:59;19.45;;;14.82;;
78197;SDS011;67472;51.554;7.812;2023-05-21T09:58:46;21.25;;;15.25;;
78197;SDS011;67472;51.554;7.812;2023-05-21T10:01:32;18.40;;;14.70;;
78197;SDS011;67472;51.554;7.812;2023-05-21T10:04:20;20.02;;;15.57;;
78197;SDS011;67472;51.554;7.812;2023-05-21T10:07:09;21.20;;;15.18;;
78197;SDS011;67472;51.554;7.812;2023-05-21T10:09:55;20.65;;;15.27;;
78197;SDS011;67472;51.554;7.812;2023-05-21T10:12:43;16.15;;;13.52;;
78197;SDS011;67472;51.554;7.812;2023-05-21T10:15:34;21.50;;;14.90;;
78197;SDS011;67472;51.554;7.812;2023-05-21T10:18:24;17.42;;;14.73;;
78197;SDS011;67472;51.554;7.812;2023-05-21T10:21:10;18.85;;;14.23;;
78197;SDS011;67472;51.554;7.812;2023-05-21T10:23:59;19.55;;;14.70;;
78197;SDS011;67472;51.554;7.812;2023-05-21T10:26:47;18.58;;;15.65;;
78197;SDS011;67472;51.554;7.812;2023-05-21T10:29:34;21.67;;;16.20;;
78197;SDS011;67472;51.554;7.812;2023-05-21T10:32:22;21.25;;;15.57;;
78197;SDS011;67472;51.554;7.812;2023-05-21T10:35:10;19.33;;;14.82;;
78197;SDS011;67472;51.554;7.812;2023-05-21T10:37:58;23.38;;;15.48;;
78197;SDS011;67472;51.554;7.812;2023-05-21T10:40:49;17.67;;;15.15;;
78197;SDS011;67472;51.554;7.812;2023-05-21T10:43:40;20.60;;;16.38;;
78197;SDS011;67472;51.554;7.812;2023-05-21T10:50:08;20.58;;;15.55;;
78197;SDS011;67472;51.554;7.812;2023-05-21T10:53:07;20.70;;;15.25;;
78197;SDS011;67472;51.554;7.812;2023-05-21T10:56:07;17.88;;;14.75;;
78197;SDS011;67472;51.554;7.812;2023-05-21T10:59:06;16.48;;;13.07;;
78197;SDS011;67472;51.554;7.812;2023-05-21T11:02:02;19.00;;;14.45;;
78197;SDS011;67472;51.554;7.812;2023-05-21T11:04:50;19.55;;;15.15;;
78197;SDS011;67472;51.554;7.812;2023-05-21T11:07:50;20.38;;;16.55;;
78197;SDS011;67472;51.554;7.812;2023-05-21T11:10:39;24.10;;;15.77;;
78197;SDS011;67472;51.554;7.812;2023-05-21T11:13:43;19.65;;;15.05;;
78197;SDS011;67472;51.554;7.812;2023-05-21T11:16:32;18.65;;;15.60;;
78197;SDS011;67472;51.554;7.812;2023-05-21T11:19:20;17.27;;;14.90;;
78197;SDS011;67472;51.554;7.812;2023-05-21T11:22:08;18.20;;;15.15;;
78197;SDS011;67472;51.554;7.812;2023-05-21T11:25:05;18.55;;;15.13;;
78197;SDS011;67472;51.554;7.812;2023-05-21T11:27:51;23.02;;;15.77;;
78197;SDS011;67472;51.554;7.812;2023-05-21T11:30:40;22.08;;;15.60;;
78197;SDS011;67472;51.554;7.812;2023-05-21T11:33:26;22.27;;;14.68;;
78197;SDS011;67472;51.554;7.812;2023-05-21T11:36:12;20.15;;;14.98;;
78197;SDS011;67472;51.554;7.812;2023-05-21T11:39:07;19.67;;;15.07;;
78197;SDS011;67472;51.554;7.812;2023-05-21T11:41:55;21.10;;;16.17;;
78197;SDS011;67472;51.554;7.812;2023-05-21T11:44:44;18.70;;;14.80;;
78197;SDS011;67472;51.554;7.812;2023-05-21T11:47:31;19.92;;;15.05;;
78197;SDS011;67472;51.554;7.812;2023-05-21T11:50:18;21.10;;;15.07;;
78197;SDS011;67472;51.554;7.812;2023-05-21T11:53:04;18.60;;;15.13;;
78197;SDS011;67472;51.554;7.812;2023-05-21T11:55:51;18.88;;;14.85;;
78197;SDS011;67472;51.554;7.812;2023-05-21T11:58:41;18.02;;;14.35;;
78197;SDS011;67472;51.554;7.812;2023-05-21T12:01:27;18.60;;;15.05;;
78197;SDS011;67472;51.554;7.812;2023-05-21T12:04:15;20.02;;;13.43;;
78197;SDS011;67472;51.554;7.812;2023-05-21T12:07:02;16.15;;;14.10;;
78197;SDS011;67472;51.554;7.812;2023-05-21T12:09:49;21.73;;;15.02;;
78197;SDS011;67472;51.554;7.812;2023-05-21T12:12:36;17.42;;;14.00;;
78197;SDS011;67472;51.554;7.812;2023-05-21T12:15:23;19.63;;;15.35;;
78197;SDS011;67472;51.554;7.812;2023-05-21T12:18:11;16.85;;;14.27;;
78197;SDS011;67472;51.554;7.812;2023-05-21T12:21:01;16.73;;;14.35;;
78197;SDS011;67472;51.554;7.812;2023-05-21T12:23:47;18.58;;;15.13;;
78197;SDS011;67472;51.554;7.812;2023-05-21T12:26:33;18.88;;;15.00;;
78197;SDS011;67472;51.554;7.812;2023-05-21T12:29:20;16.30;;;13.73;;
78197;SDS011;67472;51.554;7.812;2023-05-21T12:32:08;18.80;;;15.10;;
78197;SDS011;67472;51.554;7.812;2023-05-21T12:34:55;19.40;;;14.90;;
78197;SDS011;67472;51.554;7.812;2023-05-21T12:37:43;18.00;;;14.55;;
78197;SDS011;67472;51.554;7.812;2023-05-21T12:40:33;18.25;;;14.98;;
78197;SDS011;67472;51.554;7.812;2023-05-21T12:43:21;18.48;;;15.32;;
78197;SDS011;67472;51.554;7.812;2023-05-21T12:46:09;15.80;;;14.18;;
78197;SDS011;67472;51.554;7.812;2023-05-21T12:48:58;15.68;;;13.30;;
78197;SDS011;67472;51.554;7.812;2023-05-21T12:51:44;15.85;;;13.35;;
78197;SDS011;67472;51.554;7.812;2023-05-21T12:54:33;19.02;;;14.05;;
78197;SDS011;67472;51.554;7.812;2023-05-21T12:57:20;20.23;;;13.52;;
78197;SDS011;67472;51.554;7.812;2023-05-21T13:00:10;18.88;;;12.75;;
78197;SDS011;67472;51.554;7.812;2023-05-21T13:02:58;16.52;;;14.13;;
78197;SDS011;67472;51.554;7.812;2023-05-21T13:05:45;15.63;;;13.32;;
78197;SDS011;67472;51.554;7.812;2023-05-21T13:08:31;20.55;;;13.57;;
78197;SDS011;67472;51.554;7.812;2023-05-21T13:11:19;20.58;;;13.50;;
78197;SDS011;67472;51.554;7.812;2023-05-21T13:14:05;15.25;;;12.35;;
78197;SDS011;67472;51.554;7.812;2023-05-21T13:16:52;16.90;;;13.90;;
78197;SDS011;67472;51.554;7.812;2023-05-21T13:19:38;17.75;;;13.70;;
78197;SDS011;67472;51.554;7.812;2023-05-21T13:22:25;17.80;;;13.38;;
78197;SDS011;67472;51.554;7.812;2023-05-21T13:25:12;15.73;;;13.85;;
78197;SDS011;67472;51.554;7.812;2023-05-21T13:28:01;17.30;;;13.85;;
78197;SDS011;67472;51.554;7.812;2023-05-21T13:30:49;19.27;;;13.45;;
78197;SDS011;67472;51.554;7.812;2023-05-21T13:33:37;21.20;;;15.05;;
78197;SDS011;67472;51.554;7.812;2023-05-21T13:36:24;17.55;;;13.40;;
78197;SDS011;67472;51.554;7.812;2023-05-21T13:39:10;18.83;;;13.90;;
78197;SDS011;67472;51.554;7.812;2023-05-21T13:41:56;16.58;;;13.98;;
78197;SDS011;67472;51.554;7.812;2023-05-21T13:44:44;17.90;;;14.63;;
78197;SDS011;67472;51.554;7.812;2023-05-21T13:47:31;20.25;;;13.85;;
78197;SDS011;67472;51.554;7.812;2023-05-21T13:50:17;15.52;;;12.93;;
78197;SDS011;67472;51.554;7.812;2023-05-21T13:53:04;24.35;;;13.60;;
78197;SDS011;67472;51.554;7.812;2023-05-21T13:55:50;16.90;;;13.35;;
78197;SDS011;67472;51.554;7.812;2023-05-21T13:58:36;15.40;;;13.10;;
78197;SDS011;67472;51.554;7.812;2023-05-21T14:01:25;15.48;;;12.65;;
78197;SDS011;67472;51.554;7.812;2023-05-21T14:04:11;23.25;;;12.88;;
78197;SDS011;67472;51.554;7.812;2023-05-21T14:06:58;14.40;;;12.45;;
78197;SDS011;67472;51.554;7.812;2023-05-21T14:09:44;17.10;;;13.80;;
78197;SDS011;67472;51.554;7.812;2023-05-21T14:12:31;15.77;;;13.23;;
78197;SDS011;67472;51.554;7.812;2023-05-21T14:15:18;15.40;;;12.95;;
78197;SDS011;67472;51.554;7.812;2023-05-21T14:18:06;16.98;;;12.80;;
78197;SDS011;67472;51.554;7.812;2023-05-21T14:20:55;16.50;;;12.88;;
78197;SDS011;67472;51.554;7.812;2023-05-21T14:23:41;15.80;;;12.25;;
78197;SDS011;67472;51.554;7.812;2023-05-21T14:26:28;16.30;;;13.98;;
78197;SDS011;67472;51.554;7.812;2023-05-21T14:29:14;17.35;;;12.75;;
78197;SDS011;67472;51.554;7.812;2023-05-21T14:32:01;14.60;;;12.23;;
78197;SDS011;67472;51.554;7.812;2023-05-21T14:34:48;14.02;;;12.50;;
78197;SDS011;67472;51.554;7.812;2023-05-21T14:37:34;14.18;;;12.43;;
78197;SDS011;67472;51.554;7.812;2023-05-21T14:40:21;16.02;;;12.80;;
78197;SDS011;67472;51.554;7.812;2023-05-21T14:43:07;15.27;;;12.70;;
78197;SDS011;67472;51.554;7.812;2023-05-21T14:45:54;16.65;;;12.80;;
78197;SDS011;67472;51.554;7.812;2023-05-21T14:48:40;18.05;;;12.60;;
78197;SDS011;67472;51.554;7.812;2023-05-21T14:51:27;16.58;;;12.30;;
78197;SDS011;67472;51.554;7.812;2023-05-21T14:54:15;16.15;;;12.60;;
78197;SDS011;67472;51.554;7.812;2023-05-21T14:57:01;14.30;;;12.77;;
78197;SDS011;67472;51.554;7.812;2023-05-21T14:59:47;16.33;;;11.90;;
78197;SDS011;67472;51.554;7.812;2023-05-21T15:02:33;14.02;;;12.48;;
78197;SDS011;67472;51.554;7.812;2023-05-21T15:05:20;13.82;;;11.70;;
78197;SDS011;67472;51.554;7.812;2023-05-21T15:08:08;14.38;;;11.95;;
78197;SDS011;67472;51.554;7.812;2023-05-21T15:10:54;14.07;;;12.48;;
78197;SDS011;67472;51.554;7.812;2023-05-21T15:13:41;16.70;;;11.45;;
78197;SDS011;67472;51.554;7.812;2023-05-21T15:16:27;15.95;;;12.23;;
78197;SDS011;67472;51.554;7.812;2023-05-21T15:19:13;17.60;;;12.68;;
78197;SDS011;67472;51.554;7.812;2023-05-21T15:22:00;16.52;;;13.57;;
78197;SDS011;67472;51.554;7.812;2023-05-21T15:24:47;13.05;;;11.43;;
78197;SDS011;67472;51.554;7.812;2023-05-21T15:27:34;17.63;;;12.02;;
78197;SDS011;67472;51.554;7.812;2023-05-21T15:30:20;15.40;;;12.23;;
78197;SDS011;67472;51.554;7.812;2023-05-21T15:33:07;17.00;;;12.13;;
78197;SDS011;67472;51.554;7.812;2023-05-21T15:35:53;13.98;;;12.10;;
78197;SDS011;67472;51.554;7.812;2023-05-21T15:38:39;14.82;;;12.95;;
78197;SDS011;67472;51.554;7.812;2023-05-21T15:41:27;14.32;;;11.60;;
78197;SDS011;67472;51.554;7.812;2023-05-21T15:44:13;12.52;;;10.82;;
78197;SDS011;67472;51.554;7.812;2023-05-21T15:47:00;14.90;;;12.02;;
78197;SDS011;67472;51.554;7.812;2023-05-21T15:49:46;13.32;;;11.70;;
78197;SDS011;67472;51.554;7.812;2023-05-21T15:52:32;12.18;;;10.60;;
78197;SDS011;67472;51.554;7.812;2023-05-21T15:55:18;15.10;;;11.85;;
78197;SDS011;67472;51.554;7.812;2023-05-21T15:58:09;12.80;;;11.38;;
78197;SDS011;67472;51.554;7.812;2023-05-21T16:00:55;13.35;;;11.63;;
78197;SDS011;67472;51.554;7.812;2023-05-21T16:03:44;13.68;;;11.60;;
78197;SDS011;67472;51.554;7.812;2023-05-21T16:06:31;16.13;;;11.35;;
78197;SDS011;67472;51.554;7.812;2023-05-21T16:09:18;12.23;;;11.00;;
78197;SDS011;67472;51.554;7.812;2023-05-21T16:12:04;12.98;;;10.57;;
78197;SDS011;67472;51.554;7.812;2023-05-21T16:14:52;12.13;;;10.93;;
78197;SDS011;67472;51.554;7.812;2023-05-21T16:17:39;12.82;;;11.52;;
78197;SDS011;67472;51.554;7.812;2023-05-21T16:20:25;16.05;;;11.55;;
78197;SDS011;67472;51.554;7.812;2023-05-21T16:23:11;13.18;;;11.32;;
78197;SDS011;67472;51.554;7.812;2023-05-21T16:25:57;12.88;;;11.40;;